sensor_id;sensor_type;location;lat;lon;timestamp;P1;durP1;ratioP1;P2;durP2;ratioP2
30096;SDS011;16915;51.466;3.610;2022-07-03T00:00:39;3.60;;;0.52;;
30096;SDS011;16915;51.466;3.610;2022-07-03T00:03:04;0.80;;;0.30;;
30096;SDS011;16915;51.466;3.610;2022-07-03T00:05:30;1.30;;;0.47;;
30096;SDS011;16915;51.466;3.610;2022-07-03T00:07:56;1.75;;;0.50;;
30096;SDS011;16915;51.466;3.610;2022-07-03T00:10:22;1.35;;;0.65;;
30096;SDS011;16915;51.466;3.610;2022-07-03T00:12:48;1.98;;;0.30;;
30096;SDS011;16915;51.466;3.610;2022-07-03T00:15:13;2.10;;;0.50;;
30096;SDS011;16915;51.466;3.610;2022-07-03T00:17:39;3.17;;;0.60;;
30096;SDS011;16915;51.466;3.610;2022-07-03T00:20:05;2.95;;;0.60;;
30096;SDS011;16915;51.466;3.610;2022-07-03T00:22:32;1.48;;;0.35;;
30096;SDS011;16915;51.466;3.610;2022-07-03T00:25:08;1.13;;;0.30;;
30096;SDS011;16915;51.466;3.610;2022-07-03T00:27:37;3.83;;;0.52;;
30096;SDS011;16915;51.466;3.610;2022-07-03T00:30:04;5.30;;;0.68;;
30096;SDS011;16915;51.466;3.610;2022-07-03T00:32:37;2.58;;;0.60;;
30096;SDS011;16915;51.466;3.610;2022-07-03T00:35:03;1.67;;;0.63;;
30096;SDS011;16915;51.466;3.610;2022-07-03T00:37:30;1.25;;;0.60;;
30096;SDS011;16915;51.466;3.610;2022-07-03T00:39:56;4.18;;;1.83;;
30096;SDS011;16915;51.466;3.610;2022-07-03T00:42:22;2.05;;;0.55;;
30096;SDS011;16915;51.466;3.610;2022-07-03T00:44:51;1.08;;;0.50;;
30096;SDS011;16915;51.466;3.610;2022-07-03T00:47:22;1.45;;;0.60;;
30096;SDS011;16915;51.466;3.610;2022-07-03T00:49:50;2.83;;;0.60;;
30096;SDS011;16915;51.466;3.610;2022-07-03T00:52:19;1.20;;;0.50;;
30096;SDS011;16915;51.466;3.610;2022-07-03T00:54:52;2.25;;;0.45;;
30096;SDS011;16915;51.466;3.610;2022-07-03T00:57:23;1.15;;;0.55;;
30096;SDS011;16915;51.466;3.610;2022-07-03T00:59:50;1.40;;;0.73;;
30096;SDS011;16915;51.466;3.610;2022-07-03T01:18:54;1.55;;;0.90;;
30096;SDS011;16915;51.466;3.610;2022-07-03T01:27:04;3.40;;;0.80;;
30096;SDS011;16915;51.466;3.610;2022-07-03T01:29:38;2.53;;;0.70;;
30096;SDS011;16915;51.466;3.610;2022-07-03T01:32:31;2.25;;;0.80;;
30096;SDS011;16915;51.466;3.610;2022-07-03T01:35:04;5.28;;;1.00;;
30096;SDS011;16915;51.466;3.610;2022-07-03T01:37:31;1.35;;;0.70;;
30096;SDS011;16915;51.466;3.610;2022-07-03T01:40:02;3.50;;;0.80;;
30096;SDS011;16915;51.466;3.610;2022-07-03T01:42:29;3.85;;;0.80;;
30096;SDS011;16915;51.466;3.610;2022-07-03T01:44:59;4.10;;;1.10;;
30096;SDS011;16915;51.466;3.610;2022-07-03T01:47:42;4.13;;;1.00;;
30096;SDS011;16915;51.466;3.610;2022-07-03T01:50:11;7.57;;;0.95;;
30096;SDS011;16915;51.466;3.610;2022-07-03T01:52:40;4.35;;;1.02;;
30096;SDS011;16915;51.466;3.610;2022-07-03T01:55:10;4.13;;;1.00;;
30096;SDS011;16915;51.466;3.610;2022-07-03T01:57:47;3.50;;;1.25;;
30096;SDS011;16915;51.466;3.610;2022-07-03T02:00:14;6.97;;;1.15;;
30096;SDS011;16915;51.466;3.610;2022-07-03T02:02:43;3.63;;;1.10;;
30096;SDS011;16915;51.466;3.610;2022-07-03T02:05:28;3.75;;;0.90;;
30096;SDS011;16915;51.466;3.610;2022-07-03T02:08:58;3.85;;;1.00;;
30096;SDS011;16915;51.466;3.610;2022-07-03T02:11:02;4.65;;;1.42;;
30096;SDS011;16915;51.466;3.610;2022-07-03T02:13:32;3.72;;;1.20;;
30096;SDS011;16915;51.466;3.610;2022-07-03T02:16:03;7.15;;;1.48;;
30096;SDS011;16915;51.466;3.610;2022-07-03T02:18:33;5.78;;;1.35;;
30096;SDS011;16915;51.466;3.610;2022-07-03T02:21:07;7.43;;;1.15;;
30096;SDS011;16915;51.466;3.610;2022-07-03T02:23:51;2.28;;;1.00;;
30096;SDS011;16915;51.466;3.610;2022-07-03T02:26:26;2.83;;;1.08;;
30096;SDS011;16915;51.466;3.610;2022-07-03T02:29:04;2.83;;;1.08;;
30096;SDS011;16915;51.466;3.610;2022-07-03T02:31:38;4.47;;;1.23;;
30096;SDS011;16915;51.466;3.610;2022-07-03T02:34:07;3.75;;;1.13;;
30096;SDS011;16915;51.466;3.610;2022-07-03T02:36:40;2.95;;;1.00;;
30096;SDS011;16915;51.466;3.610;2022-07-03T02:39:26;3.65;;;0.90;;
30096;SDS011;16915;51.466;3.610;2022-07-03T02:42:22;3.92;;;1.33;;
30096;SDS011;16915;51.466;3.610;2022-07-03T02:44:56;3.08;;;1.23;;
30096;SDS011;16915;51.466;3.610;2022-07-03T02:50:00;2.65;;;0.80;;
30096;SDS011;16915;51.466;3.610;2022-07-03T03:01:37;4.25;;;0.98;;
30096;SDS011;16915;51.466;3.610;2022-07-03T03:06:48;4.78;;;1.70;;
30096;SDS011;16915;51.466;3.610;2022-07-03T03:09:20;1.65;;;1.02;;
30096;SDS011;16915;51.466;3.610;2022-07-03T03:11:59;8.43;;;1.55;;
30096;SDS011;16915;51.466;3.610;2022-07-03T03:14:27;4.85;;;1.23;;
30096;SDS011;16915;51.466;3.610;2022-07-03T03:17:02;4.70;;;1.10;;
30096;SDS011;16915;51.466;3.610;2022-07-03T03:19:31;8.23;;;1.48;;
30096;SDS011;16915;51.466;3.610;2022-07-03T03:22:15;4.25;;;1.52;;
30096;SDS011;16915;51.466;3.610;2022-07-03T03:24:50;3.33;;;1.45;;
30096;SDS011;16915;51.466;3.610;2022-07-03T03:27:16;2.13;;;1.40;;
30096;SDS011;16915;51.466;3.610;2022-07-03T03:29:44;1.75;;;1.30;;
30096;SDS011;16915;51.466;3.610;2022-07-03T03:32:10;3.58;;;1.30;;
30096;SDS011;16915;51.466;3.610;2022-07-03T03:34:36;4.95;;;1.20;;
30096;SDS011;16915;51.466;3.610;2022-07-03T03:37:05;4.93;;;1.42;;
30096;SDS011;16915;51.466;3.610;2022-07-03T03:39:31;8.10;;;1.58;;
30096;SDS011;16915;51.466;3.610;2022-07-03T03:41:56;5.57;;;1.55;;
30096;SDS011;16915;51.466;3.610;2022-07-03T03:44:23;1.58;;;1.38;;
30096;SDS011;16915;51.466;3.610;2022-07-03T03:46:50;2.97;;;1.80;;
30096;SDS011;16915;51.466;3.610;2022-07-03T03:49:16;2.88;;;1.85;;
30096;SDS011;16915;51.466;3.610;2022-07-03T03:51:41;3.42;;;1.90;;
30096;SDS011;16915;51.466;3.610;2022-07-03T03:54:07;4.28;;;1.80;;
30096;SDS011;16915;51.466;3.610;2022-07-03T03:56:32;3.67;;;2.00;;
30096;SDS011;16915;51.466;3.610;2022-07-03T03:58:58;7.28;;;2.03;;
30096;SDS011;16915;51.466;3.610;2022-07-03T04:01:24;5.05;;;1.88;;
30096;SDS011;16915;51.466;3.610;2022-07-03T04:03:49;2.22;;;2.00;;
30096;SDS011;16915;51.466;3.610;2022-07-03T04:06:15;5.43;;;2.17;;
30096;SDS011;16915;51.466;3.610;2022-07-03T04:08:40;7.22;;;2.30;;
30096;SDS011;16915;51.466;3.610;2022-07-03T04:11:06;4.30;;;2.13;;
30096;SDS011;16915;51.466;3.610;2022-07-03T04:14:15;6.97;;;2.95;;
30096;SDS011;16915;51.466;3.610;2022-07-03T04:20:57;5.47;;;2.97;;
30096;SDS011;16915;51.466;3.610;2022-07-03T04:24:18;6.00;;;3.10;;
30096;SDS011;16915;51.466;3.610;2022-07-03T04:26:44;7.55;;;3.10;;
30096;SDS011;16915;51.466;3.610;2022-07-03T04:29:10;6.47;;;3.10;;
30096;SDS011;16915;51.466;3.610;2022-07-03T04:31:36;5.78;;;3.20;;
30096;SDS011;16915;51.466;3.610;2022-07-03T04:34:02;6.10;;;3.47;;
30096;SDS011;16915;51.466;3.610;2022-07-03T04:36:27;5.47;;;3.17;;
30096;SDS011;16915;51.466;3.610;2022-07-03T04:38:53;10.23;;;3.50;;
30096;SDS011;16915;51.466;3.610;2022-07-03T04:41:20;6.15;;;3.13;;
30096;SDS011;16915;51.466;3.610;2022-07-03T04:43:46;5.90;;;3.15;;
30096;SDS011;16915;51.466;3.610;2022-07-03T04:46:12;8.55;;;3.63;;
30096;SDS011;16915;51.466;3.610;2022-07-03T04:48:37;4.65;;;3.53;;
30096;SDS011;16915;51.466;3.610;2022-07-03T04:51:03;9.13;;;3.88;;
30096;SDS011;16915;51.466;3.610;2022-07-03T04:53:43;5.55;;;3.65;;
30096;SDS011;16915;51.466;3.610;2022-07-03T04:56:09;7.85;;;3.58;;
30096;SDS011;16915;51.466;3.610;2022-07-03T04:58:40;9.15;;;4.07;;
30096;SDS011;16915;51.466;3.610;2022-07-03T05:01:06;7.85;;;4.13;;
30096;SDS011;16915;51.466;3.610;2022-07-03T05:03:31;9.43;;;3.95;;
30096;SDS011;16915;51.466;3.610;2022-07-03T05:05:57;7.40;;;4.05;;
30096;SDS011;16915;51.466;3.610;2022-07-03T05:08:23;12.25;;;4.43;;
30096;SDS011;16915;51.466;3.610;2022-07-03T05:10:49;7.32;;;4.50;;
30096;SDS011;16915;51.466;3.610;2022-07-03T05:13:14;8.90;;;4.53;;
30096;SDS011;16915;51.466;3.610;2022-07-03T05:15:40;7.43;;;4.72;;
30096;SDS011;16915;51.466;3.610;2022-07-03T05:18:06;6.70;;;4.45;;
30096;SDS011;16915;51.466;3.610;2022-07-03T05:20:31;9.90;;;4.25;;
30096;SDS011;16915;51.466;3.610;2022-07-03T05:22:57;6.57;;;4.43;;
30096;SDS011;16915;51.466;3.610;2022-07-03T05:25:24;7.25;;;3.50;;
30096;SDS011;16915;51.466;3.610;2022-07-03T05:27:51;6.47;;;4.05;;
30096;SDS011;16915;51.466;3.610;2022-07-03T05:30:18;7.43;;;4.30;;
30096;SDS011;16915;51.466;3.610;2022-07-03T05:32:45;7.18;;;4.18;;
30096;SDS011;16915;51.466;3.610;2022-07-03T05:35:11;6.75;;;3.85;;
30096;SDS011;16915;51.466;3.610;2022-07-03T05:37:36;7.50;;;4.00;;
30096;SDS011;16915;51.466;3.610;2022-07-03T05:40:05;5.53;;;4.45;;
30096;SDS011;16915;51.466;3.610;2022-07-03T05:42:31;6.00;;;3.83;;
30096;SDS011;16915;51.466;3.610;2022-07-03T05:44:57;7.43;;;4.35;;
30096;SDS011;16915;51.466;3.610;2022-07-03T05:47:23;8.82;;;4.22;;
30096;SDS011;16915;51.466;3.610;2022-07-03T05:49:48;8.70;;;4.68;;
30096;SDS011;16915;51.466;3.610;2022-07-03T05:52:14;5.05;;;3.75;;
30096;SDS011;16915;51.466;3.610;2022-07-03T05:54:41;8.32;;;4.25;;
30096;SDS011;16915;51.466;3.610;2022-07-03T05:57:07;8.85;;;4.18;;
30096;SDS011;16915;51.466;3.610;2022-07-03T05:59:32;9.93;;;4.63;;
30096;SDS011;16915;51.466;3.610;2022-07-03T06:01:58;9.02;;;4.00;;
30096;SDS011;16915;51.466;3.610;2022-07-03T06:04:24;7.55;;;3.95;;
30096;SDS011;16915;51.466;3.610;2022-07-03T06:06:49;8.63;;;3.92;;
30096;SDS011;16915;51.466;3.610;2022-07-03T06:09:15;6.82;;;3.90;;
30096;SDS011;16915;51.466;3.610;2022-07-03T06:11:41;5.93;;;3.00;;
30096;SDS011;16915;51.466;3.610;2022-07-03T06:14:07;8.25;;;3.22;;
30096;SDS011;16915;51.466;3.610;2022-07-03T06:16:32;5.32;;;3.38;;
30096;SDS011;16915;51.466;3.610;2022-07-03T06:18:58;4.88;;;3.22;;
30096;SDS011;16915;51.466;3.610;2022-07-03T06:21:24;6.88;;;3.53;;
30096;SDS011;16915;51.466;3.610;2022-07-03T06:23:49;9.40;;;3.20;;
30096;SDS011;16915;51.466;3.610;2022-07-03T06:26:15;6.10;;;2.55;;
30096;SDS011;16915;51.466;3.610;2022-07-03T06:28:41;6.35;;;2.65;;
30096;SDS011;16915;51.466;3.610;2022-07-03T06:31:08;4.22;;;2.75;;
30096;SDS011;16915;51.466;3.610;2022-07-03T06:33:34;4.35;;;2.60;;
30096;SDS011;16915;51.466;3.610;2022-07-03T06:35:59;4.97;;;2.45;;
30096;SDS011;16915;51.466;3.610;2022-07-03T06:38:25;4.97;;;2.53;;
30096;SDS011;16915;51.466;3.610;2022-07-03T06:40:51;4.57;;;1.85;;
30096;SDS011;16915;51.466;3.610;2022-07-03T06:43:20;5.18;;;1.70;;
30096;SDS011;16915;51.466;3.610;2022-07-03T06:45:45;2.80;;;1.67;;
30096;SDS011;16915;51.466;3.610;2022-07-03T06:48:11;4.13;;;1.65;;
30096;SDS011;16915;51.466;3.610;2022-07-03T06:50:36;2.33;;;1.10;;
30096;SDS011;16915;51.466;3.610;2022-07-03T06:53:02;4.40;;;1.20;;
30096;SDS011;16915;51.466;3.610;2022-07-03T06:55:28;5.03;;;1.23;;
30096;SDS011;16915;51.466;3.610;2022-07-03T06:57:53;3.53;;;1.10;;
30096;SDS011;16915;51.466;3.610;2022-07-03T07:00:22;2.72;;;1.05;;
30096;SDS011;16915;51.466;3.610;2022-07-03T07:02:48;1.80;;;1.10;;
30096;SDS011;16915;51.466;3.610;2022-07-03T07:05:13;1.63;;;1.02;;
30096;SDS011;16915;51.466;3.610;2022-07-03T07:07:39;3.80;;;0.98;;
30096;SDS011;16915;51.466;3.610;2022-07-03T07:10:04;3.88;;;1.25;;
30096;SDS011;16915;51.466;3.610;2022-07-03T07:12:30;2.00;;;0.70;;
30096;SDS011;16915;51.466;3.610;2022-07-03T07:14:56;3.33;;;1.17;;
30096;SDS011;16915;51.466;3.610;2022-07-03T07:17:22;3.55;;;0.88;;
30096;SDS011;16915;51.466;3.610;2022-07-03T07:19:47;2.80;;;0.85;;
30096;SDS011;16915;51.466;3.610;2022-07-03T07:22:13;4.57;;;0.80;;
30096;SDS011;16915;51.466;3.610;2022-07-03T07:24:38;3.40;;;0.95;;
30096;SDS011;16915;51.466;3.610;2022-07-03T07:27:04;2.55;;;0.80;;
30096;SDS011;16915;51.466;3.610;2022-07-03T07:29:30;2.65;;;1.27;;
30096;SDS011;16915;51.466;3.610;2022-07-03T07:31:55;5.13;;;1.02;;
30096;SDS011;16915;51.466;3.610;2022-07-03T07:34:21;3.97;;;0.98;;
30096;SDS011;16915;51.466;3.610;2022-07-03T07:36:47;2.65;;;0.70;;
30096;SDS011;16915;51.466;3.610;2022-07-03T07:39:12;1.50;;;0.90;;
30096;SDS011;16915;51.466;3.610;2022-07-03T07:41:38;2.95;;;1.17;;
30096;SDS011;16915;51.466;3.610;2022-07-03T07:44:04;3.47;;;0.98;;
30096;SDS011;16915;51.466;3.610;2022-07-03T07:46:30;2.60;;;1.00;;
30096;SDS011;16915;51.466;3.610;2022-07-03T07:48:56;1.10;;;1.00;;
30096;SDS011;16915;51.466;3.610;2022-07-03T07:51:25;4.97;;;1.45;;
30096;SDS011;16915;51.466;3.610;2022-07-03T07:53:51;3.10;;;1.15;;
30096;SDS011;16915;51.466;3.610;2022-07-03T07:56:17;2.15;;;1.08;;
30096;SDS011;16915;51.466;3.610;2022-07-03T07:58:43;4.35;;;1.30;;
30096;SDS011;16915;51.466;3.610;2022-07-03T08:01:08;4.18;;;1.42;;
30096;SDS011;16915;51.466;3.610;2022-07-03T08:03:53;3.70;;;1.45;;
30096;SDS011;16915;51.466;3.610;2022-07-03T08:06:38;3.38;;;1.77;;
30096;SDS011;16915;51.466;3.610;2022-07-03T08:09:04;2.05;;;1.30;;
30096;SDS011;16915;51.466;3.610;2022-07-03T08:11:29;4.15;;;1.65;;
30096;SDS011;16915;51.466;3.610;2022-07-03T08:13:55;4.53;;;1.52;;
30096;SDS011;16915;51.466;3.610;2022-07-03T08:16:20;2.65;;;1.30;;
30096;SDS011;16915;51.466;3.610;2022-07-03T08:18:46;3.75;;;1.60;;
30096;SDS011;16915;51.466;3.610;2022-07-03T08:21:12;2.55;;;1.40;;
30096;SDS011;16915;51.466;3.610;2022-07-03T08:23:37;2.15;;;1.10;;
30096;SDS011;16915;51.466;3.610;2022-07-03T08:26:03;3.25;;;0.95;;
30096;SDS011;16915;51.466;3.610;2022-07-03T08:28:29;4.55;;;1.13;;
30096;SDS011;16915;51.466;3.610;2022-07-03T08:31:13;1.90;;;0.60;;
30096;SDS011;16915;51.466;3.610;2022-07-03T08:33:39;4.20;;;0.95;;
30096;SDS011;16915;51.466;3.610;2022-07-03T08:36:04;2.97;;;0.90;;
30096;SDS011;16915;51.466;3.610;2022-07-03T08:38:31;2.38;;;0.90;;
30096;SDS011;16915;51.466;3.610;2022-07-03T08:40:59;1.75;;;0.68;;
30096;SDS011;16915;51.466;3.610;2022-07-03T08:43:26;1.75;;;0.60;;
30096;SDS011;16915;51.466;3.610;2022-07-03T08:45:52;3.53;;;0.60;;
30096;SDS011;16915;51.466;3.610;2022-07-03T08:48:19;2.75;;;0.95;;
30096;SDS011;16915;51.466;3.610;2022-07-03T08:50:47;2.90;;;0.60;;
30096;SDS011;16915;51.466;3.610;2022-07-03T08:53:13;5.68;;;0.50;;
30096;SDS011;16915;51.466;3.610;2022-07-03T08:55:40;2.67;;;0.70;;
30096;SDS011;16915;51.466;3.610;2022-07-03T08:58:06;0.65;;;0.65;;
30096;SDS011;16915;51.466;3.610;2022-07-03T09:00:35;1.15;;;0.50;;
30096;SDS011;16915;51.466;3.610;2022-07-03T09:03:02;1.70;;;0.70;;
30096;SDS011;16915;51.466;3.610;2022-07-03T09:05:34;5.63;;;0.40;;
30096;SDS011;16915;51.466;3.610;2022-07-03T09:08:00;0.88;;;0.50;;
30096;SDS011;16915;51.466;3.610;2022-07-03T09:10:26;0.55;;;0.43;;
30096;SDS011;16915;51.466;3.610;2022-07-03T09:12:55;5.90;;;1.10;;
30096;SDS011;16915;51.466;3.610;2022-07-03T09:15:21;2.15;;;0.60;;
30096;SDS011;16915;51.466;3.610;2022-07-03T09:18:03;3.42;;;0.68;;
30096;SDS011;16915;51.466;3.610;2022-07-03T09:20:35;2.92;;;0.50;;
30096;SDS011;16915;51.466;3.610;2022-07-03T09:23:12;2.50;;;0.73;;
30096;SDS011;16915;51.466;3.610;2022-07-03T09:25:55;0.85;;;0.57;;
30096;SDS011;16915;51.466;3.610;2022-07-03T09:29:07;3.15;;;0.60;;
30096;SDS011;16915;51.466;3.610;2022-07-03T09:31:09;2.00;;;0.75;;
30096;SDS011;16915;51.466;3.610;2022-07-03T09:33:47;3.55;;;0.80;;
30096;SDS011;16915;51.466;3.610;2022-07-03T09:36:37;1.38;;;0.63;;
30096;SDS011;16915;51.466;3.610;2022-07-03T09:44:30;2.40;;;0.55;;
30096;SDS011;16915;51.466;3.610;2022-07-03T09:49:47;1.98;;;0.80;;
30096;SDS011;16915;51.466;3.610;2022-07-03T09:52:36;1.63;;;0.67;;
30096;SDS011;16915;51.466;3.610;2022-07-03T09:57:39;2.05;;;0.60;;
30096;SDS011;16915;51.466;3.610;2022-07-03T10:05:24;3.20;;;0.73;;
30096;SDS011;16915;51.466;3.610;2022-07-03T10:10:28;1.35;;;0.55;;
30096;SDS011;16915;51.466;3.610;2022-07-03T10:13:03;4.05;;;0.50;;
30096;SDS011;16915;51.466;3.610;2022-07-03T10:15:30;6.10;;;1.08;;
30096;SDS011;16915;51.466;3.610;2022-07-03T10:17:58;1.45;;;0.50;;
30096;SDS011;16915;51.466;3.610;2022-07-03T10:20:33;1.10;;;0.40;;
30096;SDS011;16915;51.466;3.610;2022-07-03T10:23:17;0.88;;;0.40;;
30096;SDS011;16915;51.466;3.610;2022-07-03T10:25:46;1.58;;;0.70;;
30096;SDS011;16915;51.466;3.610;2022-07-03T10:28:15;3.22;;;1.52;;
30096;SDS011;16915;51.466;3.610;2022-07-03T10:30:48;3.00;;;0.40;;
30096;SDS011;16915;51.466;3.610;2022-07-03T10:33:14;0.77;;;0.57;;
30096;SDS011;16915;51.466;3.610;2022-07-03T10:35:41;3.25;;;0.57;;
30096;SDS011;16915;51.466;3.610;2022-07-03T10:38:16;2.15;;;0.60;;
30096;SDS011;16915;51.466;3.610;2022-07-03T10:43:53;1.40;;;0.50;;
30096;SDS011;16915;51.466;3.610;2022-07-03T10:46:38;2.17;;;0.68;;
30096;SDS011;16915;51.466;3.610;2022-07-03T10:49:05;3.17;;;0.60;;
30096;SDS011;16915;51.466;3.610;2022-07-03T10:54:13;3.30;;;0.80;;
30096;SDS011;16915;51.466;3.610;2022-07-03T10:59:56;3.30;;;0.70;;
30096;SDS011;16915;51.466;3.610;2022-07-03T11:02:28;3.28;;;0.55;;
30096;SDS011;16915;51.466;3.610;2022-07-03T11:05:09;3.72;;;0.73;;
30096;SDS011;16915;51.466;3.610;2022-07-03T11:44:02;1.40;;;0.50;;
30096;SDS011;16915;51.466;3.610;2022-07-03T11:46:34;0.70;;;0.50;;
30096;SDS011;16915;51.466;3.610;2022-07-03T11:49:10;1.10;;;0.50;;
30096;SDS011;16915;51.466;3.610;2022-07-03T11:51:54;2.03;;;0.45;;
30096;SDS011;16915;51.466;3.610;2022-07-03T11:54:21;1.17;;;0.52;;
30096;SDS011;16915;51.466;3.610;2022-07-03T11:56:47;2.22;;;0.52;;
30096;SDS011;16915;51.466;3.610;2022-07-03T11:59:12;2.13;;;0.73;;
30096;SDS011;16915;51.466;3.610;2022-07-03T12:01:39;0.90;;;0.30;;
30096;SDS011;16915;51.466;3.610;2022-07-03T12:04:15;2.08;;;0.40;;
30096;SDS011;16915;51.466;3.610;2022-07-03T12:06:47;1.60;;;0.52;;
30096;SDS011;16915;51.466;3.610;2022-07-03T12:09:18;2.80;;;0.52;;
30096;SDS011;16915;51.466;3.610;2022-07-03T12:12:01;1.52;;;0.40;;
30096;SDS011;16915;51.466;3.610;2022-07-03T12:14:39;1.13;;;0.38;;
30096;SDS011;16915;51.466;3.610;2022-07-03T12:17:08;0.40;;;0.30;;
30096;SDS011;16915;51.466;3.610;2022-07-03T12:19:51;1.48;;;0.50;;
30096;SDS011;16915;51.466;3.610;2022-07-03T12:22:22;2.17;;;0.50;;
30096;SDS011;16915;51.466;3.610;2022-07-03T12:27:22;1.88;;;0.55;;
30096;SDS011;16915;51.466;3.610;2022-07-03T12:29:52;0.75;;;0.40;;
30096;SDS011;16915;51.466;3.610;2022-07-03T12:32:18;0.52;;;0.30;;
30096;SDS011;16915;51.466;3.610;2022-07-03T12:34:44;2.45;;;0.43;;
30096;SDS011;16915;51.466;3.610;2022-07-03T12:37:10;1.08;;;0.50;;
30096;SDS011;16915;51.466;3.610;2022-07-03T12:39:43;3.55;;;0.82;;
30096;SDS011;16915;51.466;3.610;2022-07-03T12:42:19;1.33;;;0.45;;
30096;SDS011;16915;51.466;3.610;2022-07-03T12:47:21;1.00;;;0.50;;
30096;SDS011;16915;51.466;3.610;2022-07-03T12:49:46;0.93;;;0.40;;
30096;SDS011;16915;51.466;3.610;2022-07-03T12:52:23;1.85;;;0.40;;
30096;SDS011;16915;51.466;3.610;2022-07-03T12:54:49;4.25;;;0.43;;
30096;SDS011;16915;51.466;3.610;2022-07-03T12:57:15;0.57;;;0.25;;
30096;SDS011;16915;51.466;3.610;2022-07-03T13:00:13;2.13;;;0.40;;
30096;SDS011;16915;51.466;3.610;2022-07-03T13:02:48;0.80;;;0.20;;
30096;SDS011;16915;51.466;3.610;2022-07-03T13:10:15;1.50;;;0.60;;
30096;SDS011;16915;51.466;3.610;2022-07-03T13:12:51;1.20;;;0.50;;
30096;SDS011;16915;51.466;3.610;2022-07-03T13:20:19;1.75;;;0.43;;
30096;SDS011;16915;51.466;3.610;2022-07-03T13:22:47;2.08;;;0.30;;
30096;SDS011;16915;51.466;3.610;2022-07-03T13:25:13;0.73;;;0.30;;
30096;SDS011;16915;51.466;3.610;2022-07-03T13:27:39;2.53;;;0.52;;
30096;SDS011;16915;51.466;3.610;2022-07-03T13:30:08;0.65;;;0.30;;
30096;SDS011;16915;51.466;3.610;2022-07-03T13:32:34;1.02;;;0.43;;
30096;SDS011;16915;51.466;3.610;2022-07-03T13:35:00;1.20;;;0.40;;
30096;SDS011;16915;51.466;3.610;2022-07-03T13:37:25;2.13;;;0.82;;
30096;SDS011;16915;51.466;3.610;2022-07-03T13:39:51;1.40;;;0.40;;
30096;SDS011;16915;51.466;3.610;2022-07-03T13:42:17;0.65;;;0.20;;
30096;SDS011;16915;51.466;3.610;2022-07-03T13:44:42;1.65;;;0.30;;
30096;SDS011;16915;51.466;3.610;2022-07-03T13:47:08;1.75;;;0.40;;
30096;SDS011;16915;51.466;3.610;2022-07-03T13:49:34;0.45;;;0.20;;
30096;SDS011;16915;51.466;3.610;2022-07-03T13:51:59;0.98;;;0.30;;
30096;SDS011;16915;51.466;3.610;2022-07-03T13:54:25;1.90;;;0.30;;
30096;SDS011;16915;51.466;3.610;2022-07-03T13:56:51;0.68;;;0.20;;
30096;SDS011;16915;51.466;3.610;2022-07-03T13:59:17;2.05;;;0.30;;
30096;SDS011;16915;51.466;3.610;2022-07-03T14:01:43;1.08;;;0.65;;
30096;SDS011;16915;51.466;3.610;2022-07-03T14:04:14;1.55;;;0.50;;
30096;SDS011;16915;51.466;3.610;2022-07-03T14:06:40;1.88;;;0.30;;
30096;SDS011;16915;51.466;3.610;2022-07-03T14:09:06;1.50;;;0.17;;
30096;SDS011;16915;51.466;3.610;2022-07-03T14:11:31;1.40;;;0.40;;
30096;SDS011;16915;51.466;3.610;2022-07-03T14:13:57;1.98;;;0.65;;
30096;SDS011;16915;51.466;3.610;2022-07-03T14:16:23;0.43;;;0.30;;
30096;SDS011;16915;51.466;3.610;2022-07-03T14:18:48;1.70;;;0.40;;
30096;SDS011;16915;51.466;3.610;2022-07-03T14:21:14;0.88;;;0.50;;
30096;SDS011;16915;51.466;3.610;2022-07-03T14:23:39;1.05;;;0.40;;
30096;SDS011;16915;51.466;3.610;2022-07-03T14:26:05;0.75;;;0.40;;
30096;SDS011;16915;51.466;3.610;2022-07-03T14:28:31;0.98;;;0.40;;
30096;SDS011;16915;51.466;3.610;2022-07-03T14:31:15;0.50;;;0.20;;
30096;SDS011;16915;51.466;3.610;2022-07-03T14:33:59;1.27;;;0.30;;
30096;SDS011;16915;51.466;3.610;2022-07-03T14:36:25;2.22;;;0.40;;
30096;SDS011;16915;51.466;3.610;2022-07-03T14:38:50;0.40;;;0.20;;
30096;SDS011;16915;51.466;3.610;2022-07-03T14:41:16;0.75;;;0.35;;
30096;SDS011;16915;51.466;3.610;2022-07-03T14:43:42;1.20;;;0.40;;
30096;SDS011;16915;51.466;3.610;2022-07-03T14:46:07;1.30;;;0.40;;
30096;SDS011;16915;51.466;3.610;2022-07-03T14:48:33;1.80;;;0.50;;
30096;SDS011;16915;51.466;3.610;2022-07-03T14:50:58;0.90;;;0.20;;
30096;SDS011;16915;51.466;3.610;2022-07-03T14:53:24;1.38;;;0.50;;
30096;SDS011;16915;51.466;3.610;2022-07-03T14:55:50;1.52;;;0.50;;
30096;SDS011;16915;51.466;3.610;2022-07-03T14:58:18;1.65;;;0.40;;
30096;SDS011;16915;51.466;3.610;2022-07-03T15:03:25;0.98;;;0.22;;
30096;SDS011;16915;51.466;3.610;2022-07-03T15:05:52;1.13;;;0.35;;
30096;SDS011;16915;51.466;3.610;2022-07-03T15:10:48;1.05;;;0.40;;
30096;SDS011;16915;51.466;3.610;2022-07-03T15:13:14;1.08;;;0.40;;
30096;SDS011;16915;51.466;3.610;2022-07-03T15:15:40;1.15;;;0.30;;
30096;SDS011;16915;51.466;3.610;2022-07-03T15:18:11;2.20;;;0.60;;
30096;SDS011;16915;51.466;3.610;2022-07-03T15:20:38;0.57;;;0.20;;
30096;SDS011;16915;51.466;3.610;2022-07-03T15:23:04;1.35;;;0.30;;
30096;SDS011;16915;51.466;3.610;2022-07-03T15:25:32;3.17;;;0.40;;
30096;SDS011;16915;51.466;3.610;2022-07-03T15:27:58;1.63;;;0.40;;
30096;SDS011;16915;51.466;3.610;2022-07-03T15:30:25;0.70;;;0.30;;
30096;SDS011;16915;51.466;3.610;2022-07-03T15:32:53;0.88;;;0.22;;
30096;SDS011;16915;51.466;3.610;2022-07-03T15:35:21;2.55;;;0.20;;
30096;SDS011;16915;51.466;3.610;2022-07-03T15:54:36;1.55;;;0.60;;
30096;SDS011;16915;51.466;3.610;2022-07-03T15:57:11;1.67;;;0.50;;
30096;SDS011;16915;51.466;3.610;2022-07-03T15:59:58;1.13;;;0.20;;
30096;SDS011;16915;51.466;3.610;2022-07-03T16:02:29;2.38;;;1.58;;
30096;SDS011;16915;51.466;3.610;2022-07-03T16:07:36;0.70;;;0.30;;
30096;SDS011;16915;51.466;3.610;2022-07-03T16:10:04;0.85;;;0.35;;
30096;SDS011;16915;51.466;3.610;2022-07-03T16:12:32;0.40;;;0.20;;
30096;SDS011;16915;51.466;3.610;2022-07-03T16:14:58;1.13;;;0.30;;
30096;SDS011;16915;51.466;3.610;2022-07-03T16:17:31;2.20;;;0.50;;
30096;SDS011;16915;51.466;3.610;2022-07-03T16:19:59;1.38;;;0.80;;
30096;SDS011;16915;51.466;3.610;2022-07-03T16:22:26;2.03;;;0.85;;
30096;SDS011;16915;51.466;3.610;2022-07-03T16:24:53;2.08;;;0.30;;
30096;SDS011;16915;51.466;3.610;2022-07-03T16:27:20;1.20;;;0.82;;
30096;SDS011;16915;51.466;3.610;2022-07-03T16:29:49;1.70;;;0.50;;
30096;SDS011;16915;51.466;3.610;2022-07-03T16:32:18;3.00;;;0.85;;
30096;SDS011;16915;51.466;3.610;2022-07-03T16:37:12;3.60;;;1.20;;
30096;SDS011;16915;51.466;3.610;2022-07-03T16:39:40;0.97;;;0.40;;
30096;SDS011;16915;51.466;3.610;2022-07-03T16:42:10;2.58;;;1.25;;
30096;SDS011;16915;51.466;3.610;2022-07-03T16:44:40;0.98;;;0.50;;
30096;SDS011;16915;51.466;3.610;2022-07-03T16:47:06;2.60;;;0.65;;
30096;SDS011;16915;51.466;3.610;2022-07-03T16:49:34;2.58;;;0.50;;
30096;SDS011;16915;51.466;3.610;2022-07-03T16:52:05;2.25;;;0.50;;
30096;SDS011;16915;51.466;3.610;2022-07-03T16:54:36;1.52;;;0.50;;
30096;SDS011;16915;51.466;3.610;2022-07-03T16:57:03;1.48;;;0.50;;
30096;SDS011;16915;51.466;3.610;2022-07-03T16:59:31;3.70;;;0.80;;
30096;SDS011;16915;51.466;3.610;2022-07-03T17:04:55;4.63;;;0.82;;
30096;SDS011;16915;51.466;3.610;2022-07-03T17:07:22;2.50;;;0.73;;
30096;SDS011;16915;51.466;3.610;2022-07-03T17:09:49;4.10;;;0.50;;
30096;SDS011;16915;51.466;3.610;2022-07-03T17:12:15;2.08;;;0.43;;
30096;SDS011;16915;51.466;3.610;2022-07-03T17:14:41;1.67;;;0.47;;
30096;SDS011;16915;51.466;3.610;2022-07-03T17:17:10;2.40;;;0.68;;
30096;SDS011;16915;51.466;3.610;2022-07-03T17:19:50;3.03;;;0.68;;
30096;SDS011;16915;51.466;3.610;2022-07-03T17:22:23;1.27;;;0.40;;
30096;SDS011;16915;51.466;3.610;2022-07-03T17:24:51;1.00;;;0.40;;
30096;SDS011;16915;51.466;3.610;2022-07-03T17:27:24;2.22;;;0.43;;
30096;SDS011;16915;51.466;3.610;2022-07-03T17:30:06;2.78;;;0.40;;